Time;durP1;ratioP1;P1;durP2;ratioP2;P2;SDS_P1;SDS_P2;PMS_P1;PMS_P2;Temp;Humidity;BMP_temperature;BMP_pressure;BME280_temperature;BME280_humidity;BME280_pressure;Samples;Min_cycle;Max_cycle;Signal;HPM_P1;HPM_P2
2022/03/12 00:00:00;;;;;;;7.35;2.00;;;6.20;34.90;;;;;;5026347;28;20187;-69
2022/03/12 00:02:29;;;;;;;5.15;2.20;;;6.20;35.00;;;;;;5024725;28;20045;-69
2022/03/12 00:04:58;;;;;;;3.47;1.80;;;6.10;35.40;;;;;;5030923;28;20056;-68
2022/03/12 00:07:27;;;;;;;4.20;1.63;;;6.10;35.70;;;;;;5034265;28;20055;-69
2022/03/12 00:09:54;;;;;;;6.35;2.05;;;6.10;35.40;;;;;;5031661;28;20055;-70
2022/03/12 00:12:22;;;;;;;5.85;2.08;;;6.10;35.30;;;;;;5031972;28;20045;-69
2022/03/12 00:14:49;;;;;;;4.15;2.08;;;6.10;35.20;;;;;;5028544;28;20049;-69
2022/03/12 00:17:21;;;;;;;4.00;1.98;;;6.10;34.60;;;;;;5026754;28;20477;-69
2022/03/12 00:19:48;;;;;;;6.03;2.10;;;6.10;34.70;;;;;;5026071;28;20373;-69
2022/03/12 00:22:16;;;;;;;6.32;2.55;;;6.00;35.50;;;;;;5025839;28;20938;-69
2022/03/12 00:24:43;;;;;;;7.57;2.47;;;6.00;35.30;;;;;;5028642;28;20049;-69
2022/03/12 00:27:10;;;;;;;5.53;2.35;;;6.00;35.70;;;;;;5029158;28;20057;-69
2022/03/12 00:29:38;;;;;;;5.90;2.22;;;6.10;35.50;;;;;;5029075;28;20277;-69
2022/03/12 00:32:11;;;;;;;4.75;2.10;;;6.00;35.50;;;;;;5027825;28;20048;-68
2022/03/12 00:34:39;;;;;;;4.35;1.85;;;6.00;35.90;;;;;;5028999;28;20064;-69
2022/03/12 00:37:06;;;;;;;4.10;1.90;;;5.90;35.80;;;;;;5029584;28;20051;-70
2022/03/12 00:39:35;;;;;;;6.47;1.65;;;5.90;35.40;;;;;;5029187;28;20127;-69
2022/03/12 00:42:03;;;;;;;5.45;2.15;;;5.90;35.20;;;;;;5027316;28;20127;-70
2022/03/12 00:44:31;;;;;;;6.38;2.20;;;5.90;34.90;;;;;;5023745;28;20089;-70
2022/03/12 00:47:02;;;;;;;3.92;1.77;;;5.90;35.30;;;;;;5024484;28;20115;-70
2022/03/12 00:49:29;;;;;;;5.47;1.67;;;5.90;35.30;;;;;;5025305;28;20052;-69
2022/03/12 00:51:56;;;;;;;7.63;2.03;;;5.80;35.50;;;;;;5025176;28;20068;-69
2022/03/12 00:54:23;;;;;;;4.15;1.80;;;5.80;35.20;;;;;;5027823;28;20789;-69
2022/03/12 00:56:53;;;;;;;6.10;1.63;;;5.90;35.10;;;;;;5026684;28;20059;-69
2022/03/12 00:59:20;;;;;;;5.25;1.75;;;5.80;35.50;;;;;;5033755;28;20593;-69
2022/03/12 01:01:47;;;;;;;4.22;1.60;;;5.90;35.00;;;;;;5027162;28;20045;-69
2022/03/12 01:04:26;;;;;;;5.00;1.75;;;5.80;34.90;;;;;;5028863;28;20165;-69
2022/03/12 01:06:53;;;;;;;4.30;1.90;;;5.90;35.30;;;;;;5028798;28;20604;-69
2022/03/12 01:09:20;;;;;;;3.90;1.60;;;5.80;35.00;;;;;;5027154;28;20355;-69
2022/03/12 01:11:47;;;;;;;6.70;2.10;;;5.80;34.60;;;;;;5027274;28;20040;-69
2022/03/12 01:14:16;;;;;;;6.28;2.10;;;5.80;34.70;;;;;;5027652;28;20795;-70
2022/03/12 01:16:43;;;;;;;4.03;1.85;;;5.80;34.30;;;;;;5028513;28;20051;-70
2022/03/12 01:19:10;;;;;;;4.88;1.52;;;5.80;34.40;;;;;;5026853;28;20049;-69
2022/03/12 01:21:37;;;;;;;4.43;1.42;;;5.80;34.40;;;;;;5029561;28;20099;-70
2022/03/12 01:24:06;;;;;;;5.50;1.55;;;5.80;34.50;;;;;;5031148;28;20040;-70
2022/03/12 01:26:34;;;;;;;4.30;1.45;;;5.70;34.30;;;;;;5030040;28;20053;-69
2022/03/12 01:29:01;;;;;;;4.35;1.73;;;5.70;34.30;;;;;;5030108;28;20132;-69
2022/03/12 01:31:30;;;;;;;4.03;1.25;;;5.70;34.10;;;;;;5028698;28;20053;-69
2022/03/12 01:33:57;;;;;;;3.13;1.35;;;5.70;34.30;;;;;;5026956;28;20052;-69
2022/03/12 01:36:24;;;;;;;3.92;1.65;;;5.70;34.50;;;;;;5027214;28;21534;-69
2022/03/12 01:38:52;;;;;;;6.13;1.55;;;5.70;34.70;;;;;;5025037;28;20038;-70
2022/03/12 01:41:22;;;;;;;5.20;1.75;;;5.70;34.90;;;;;;5024907;28;20551;-69
2022/03/12 01:43:50;;;;;;;5.50;2.35;;;5.70;35.00;;;;;;5029421;28;20053;-69
2022/03/12 01:46:18;;;;;;;5.25;2.42;;;5.70;34.80;;;;;;5032170;28;20125;-70
2022/03/12 01:48:51;;;;;;;5.28;1.50;;;5.60;34.60;;;;;;5027075;28;20099;-70
2022/03/12 01:51:18;;;;;;;5.60;1.60;;;5.60;34.50;;;;;;5029420;28;20045;-69
2022/03/12 01:53:45;;;;;;;3.75;1.85;;;5.60;34.30;;;;;;5030792;28;20053;-70
2022/03/12 01:56:13;;;;;;;5.72;2.30;;;5.70;34.80;;;;;;5029912;28;20060;-69
2022/03/12 01:58:46;;;;;;;5.05;1.90;;;5.60;34.60;;;;;;5029591;28;20482;-70
2022/03/12 02:01:14;;;;;;;4.75;1.38;;;5.60;34.20;;;;;;5028845;28;20120;-70
2022/03/12 02:03:42;;;;;;;3.53;1.48;;;5.60;34.20;;;;;;5029188;28;20037;-70
2022/03/12 02:06:15;;;;;;;3.70;1.40;;;5.60;34.30;;;;;;5033338;28;20081;-70
2022/03/12 02:08:43;;;;;;;4.22;1.15;;;5.60;33.90;;;;;;5027737;28;21030;-69
2022/03/12 02:11:10;;;;;;;3.75;1.42;;;5.60;34.10;;;;;;5025880;28;20124;-69
2022/03/12 02:13:37;;;;;;;5.75;1.55;;;5.60;34.20;;;;;;5025136;28;20632;-69
2022/03/12 02:16:09;;;;;;;4.78;1.40;;;5.60;34.70;;;;;;5029345;28;20575;-68
2022/03/12 02:18:37;;;;;;;5.70;1.33;;;5.60;34.70;;;;;;5026012;28;20048;-70
2022/03/12 02:21:05;;;;;;;2.80;0.95;;;5.50;34.60;;;;;;5023941;28;20037;-69
2022/03/12 02:23:46;;;;;;;2.65;1.00;;;5.50;34.70;;;;;;5025305;28;20064;-69
2022/03/12 02:26:13;;;;;;;3.25;1.33;;;5.50;34.90;;;;;;5025208;28;20052;-69
2022/03/12 02:28:41;;;;;;;3.55;1.40;;;5.40;34.70;;;;;;5021930;28;20041;-70
2022/03/12 02:31:09;;;;;;;3.20;1.40;;;5.50;34.70;;;;;;5022586;28;20068;-69
2022/03/12 02:33:35;;;;;;;4.90;1.40;;;5.50;34.50;;;;;;5024566;28;20052;-69
2022/03/12 02:36:06;;;;;;;4.68;1.48;;;5.50;34.60;;;;;;5025643;28;20178;-69
2022/03/12 02:38:34;;;;;;;4.60;1.30;;;5.40;34.70;;;;;;5028129;28;20060;-69
2022/03/12 02:41:10;;;;;;;3.30;1.30;;;5.40;34.30;;;;;;5021371;28;20044;-70
2022/03/12 02:43:43;;;;;;;3.70;1.25;;;5.40;33.80;;;;;;5023757;28;20060;-71
2022/03/12 02:46:11;;;;;;;2.55;1.23;;;5.40;33.90;;;;;;5021886;28;20049;-70
2022/03/12 02:48:38;;;;;;;3.03;1.15;;;5.40;33.30;;;;;;5007052;28;20122;-69
2022/03/12 02:51:06;;;;;;;5.28;1.98;;;5.40;33.10;;;;;;5024904;28;20056;-69
2022/03/12 02:53:33;;;;;;;3.35;1.58;;;5.40;33.30;;;;;;5022950;28;20136;-69
2022/03/12 02:56:01;;;;;;;3.50;1.48;;;5.30;33.60;;;;;;5024469;28;20041;-69
2022/03/12 02:58:29;;;;;;;3.25;1.30;;;5.40;33.70;;;;;;5023220;28;22017;-69
2022/03/12 03:00:57;;;;;;;3.70;1.30;;;5.40;33.90;;;;;;5026924;28;20052;-69
2022/03/12 03:03:23;;;;;;;5.57;2.05;;;5.40;34.00;;;;;;5023621;28;20182;-69
2022/03/12 03:05:54;;;;;;;4.13;1.48;;;5.40;33.90;;;;;;5028602;28;20053;-69
2022/03/12 03:08:23;;;;;;;3.13;1.42;;;5.40;33.90;;;;;;5025272;28;20466;-69
2022/03/12 03:10:52;;;;;;;3.55;1.52;;;5.40;33.70;;;;;;5023051;28;20045;-69
2022/03/12 03:13:41;;;;;;;3.97;1.63;;;5.40;34.00;;;;;;5029513;28;20052;-70
2022/03/12 03:16:10;;;;;;;4.22;1.30;;;5.30;34.00;;;;;;5028655;28;20049;-69
2022/03/12 03:18:40;;;;;;;3.92;1.73;;;5.40;34.00;;;;;;5031453;28;20811;-69
2022/03/12 03:21:09;;;;;;;;;;;5.40;34.40;;;;;;5028127;28;20042;-69
2022/03/12 03:23:36;;;;;;;3.00;1.10;;;5.30;34.30;;;;;;5029570;28;19971;-69
2022/03/12 03:26:04;;;;;;;3.30;1.30;;;5.40;34.10;;;;;;5027969;28;20037;-69
2022/03/12 03:28:33;;;;;;;2.90;1.23;;;5.40;34.10;;;;;;5025612;28;20107;-69
2022/03/12 03:31:03;;;;;;;4.18;1.50;;;5.40;34.10;;;;;;5025317;28;20080;-68
2022/03/12 03:33:31;;;;;;;4.13;1.23;;;5.40;34.10;;;;;;5029840;28;20056;-69
2022/03/12 03:35:58;;;;;;;3.08;1.33;;;5.40;34.00;;;;;;5030122;28;20056;-68
2022/03/12 03:38:25;;;;;;;3.95;1.23;;;5.40;33.90;;;;;;5024062;28;20127;-69
2022/03/12 03:40:52;;;;;;;4.50;1.60;;;5.30;33.40;;;;;;5022887;28;20126;-68
2022/03/12 03:43:21;;;;;;;5.78;1.58;;;5.30;34.00;;;;;;5031034;28;20056;-69
2022/03/12 03:45:50;;;;;;;4.00;1.65;;;5.30;34.20;;;;;;5042466;28;20094;-69
2022/03/12 03:48:22;;;;;;;3.45;1.58;;;5.30;34.00;;;;;;5027574;28;20494;-69
2022/03/12 03:50:50;;;;;;;5.00;1.80;;;5.30;33.80;;;;;;5057482;28;20466;-70
2022/03/12 03:53:20;;;;;;;4.40;1.55;;;5.30;33.70;;;;;;5041190;28;20045;-69
2022/03/12 03:55:48;;;;;;;3.88;1.65;;;5.30;34.00;;;;;;5026941;28;20041;-69
2022/03/12 03:58:15;;;;;;;2.85;1.23;;;5.30;33.70;;;;;;5027531;28;20081;-69
2022/03/12 04:00:53;;;;;;;3.85;1.17;;;5.30;33.90;;;;;;5023804;28;20060;-69
2022/03/12 04:03:22;;;;;;;3.33;1.38;;;5.30;34.00;;;;;;5024949;28;20049;-71
2022/03/12 04:05:49;;;;;;;3.28;1.33;;;5.30;33.90;;;;;;5026041;28;20051;-69
2022/03/12 04:08:17;;;;;;;3.67;1.20;;;5.30;34.30;;;;;;5027012;28;20713;-69
2022/03/12 04:10:44;;;;;;;5.40;1.67;;;5.30;33.60;;;;;;5023327;28;21006;-69
2022/03/12 04:13:13;;;;;;;4.47;1.60;;;5.30;33.60;;;;;;5029575;28;20044;-70
2022/03/12 04:15:40;;;;;;;2.88;1.40;;;5.30;33.80;;;;;;5022785;28;20187;-69
2022/03/12 04:18:08;;;;;;;4.95;1.40;;;5.30;33.70;;;;;;5023364;28;20519;-68
2022/03/12 04:20:38;;;;;;;4.45;1.85;;;5.30;33.80;;;;;;5023791;28;20102;-69
2022/03/12 04:23:05;;;;;;;5.47;1.77;;;5.20;33.80;;;;;;5025940;28;20052;-68
2022/03/12 04:25:32;;;;;;;3.25;1.30;;;5.20;33.90;;;;;;5023983;28;20048;-69
2022/03/12 04:27:59;;;;;;;4.68;1.45;;;5.20;33.90;;;;;;5022168;28;20048;-69
2022/03/12 04:30:28;;;;;;;4.00;1.38;;;5.20;33.60;;;;;;5022587;28;20060;-70
2022/03/12 04:32:56;;;;;;;3.70;1.60;;;5.20;33.70;;;;;;5022516;28;20065;-70
2022/03/12 04:35:26;;;;;;;4.80;1.40;;;5.20;33.80;;;;;;5023491;28;20056;-70
2022/03/12 04:37:55;;;;;;;3.20;1.05;;;5.30;33.90;;;;;;5025478;28;20053;-69
2022/03/12 04:40:25;;;;;;;2.88;1.35;;;5.30;34.00;;;;;;5024488;28;20053;-69
2022/03/12 04:42:52;;;;;;;3.50;1.25;;;5.20;33.90;;;;;;5022576;28;20056;-68
2022/03/12 04:45:21;;;;;;;4.05;1.65;;;5.20;33.70;;;;;;5023211;28;20664;-69
2022/03/12 04:47:50;;;;;;;9.85;1.75;;;5.20;33.70;;;;;;5026113;28;20037;-69
2022/03/12 04:50:18;;;;;;;5.05;1.20;;;5.30;33.70;;;;;;5028289;28;20049;-69
2022/03/12 04:52:47;;;;;;;7.93;1.35;;;5.20;33.80;;;;;;5022611;28;20045;-69
2022/03/12 04:55:18;;;;;;;5.07;1.98;;;5.20;33.80;;;;;;5016838;28;20049;-69
2022/03/12 04:57:46;;;;;;;6.07;2.00;;;5.20;33.70;;;;;;5027297;28;20068;-69
2022/03/12 05:00:17;;;;;;;3.17;1.23;;;5.20;34.00;;;;;;5006603;28;20136;-70
2022/03/12 05:02:45;;;;;;;;;;;5.20;34.00;;;;;;5025907;28;20056;-69
2022/03/12 05:05:13;;;;;;;3.22;1.33;;;5.20;34.00;;;;;;5025202;28;19931;-70
2022/03/12 05:07:44;;;;;;;4.60;1.67;;;5.20;33.70;;;;;;5025454;28;20037;-69
2022/03/12 05:10:12;;;;;;;4.57;1.33;;;5.20;33.90;;;;;;5024920;28;20041;-69
2022/03/12 05:12:41;;;;;;;4.15;1.48;;;5.30;33.80;;;;;;5027964;28;20131;-68
2022/03/12 05:15:14;;;;;;;3.03;1.73;;;5.20;33.70;;;;;;5026062;28;20152;-69
2022/03/12 05:17:44;;;;;;;3.53;1.25;;;5.20;33.40;;;;;;5025461;28;20037;-69
2022/03/12 05:20:13;;;;;;;2.88;1.30;;;5.20;33.30;;;;;;5030518;28;20044;-68
2022/03/12 05:22:40;;;;;;;3.08;1.23;;;5.20;33.10;;;;;;5031519;28;20486;-69
2022/03/12 05:25:09;;;;;;;5.18;1.20;;;5.20;33.40;;;;;;5027214;28;20049;-68
2022/03/12 05:27:36;;;;;;;3.15;1.50;;;5.20;33.40;;;;;;5030917;28;20067;-69
2022/03/12 05:30:05;;;;;;;3.95;1.20;;;5.20;33.70;;;;;;5052425;28;20040;-69
2022/03/12 05:32:32;;;;;;;4.13;1.48;;;5.20;33.50;;;;;;5049227;28;20032;-69
2022/03/12 05:34:59;;;;;;;4.57;1.30;;;5.20;33.70;;;;;;5032716;28;20052;-70
2022/03/12 05:37:26;;;;;;;3.30;1.55;;;5.20;33.70;;;;;;5028503;28;20084;-69
2022/03/12 05:39:54;;;;;;;3.72;1.25;;;5.20;33.80;;;;;;5031492;28;20045;-69
2022/03/12 05:42:22;;;;;;;4.45;1.50;;;5.20;33.60;;;;;;5029393;28;20045;-69
2022/03/12 05:44:51;;;;;;;3.40;1.43;;;5.20;33.60;;;;;;5032395;28;20041;-69
2022/03/12 05:47:20;;;;;;;3.70;1.63;;;5.20;33.40;;;;;;5031639;28;20502;-69
2022/03/12 05:49:49;;;;;;;4.72;1.42;;;5.20;33.60;;;;;;5030840;28;20049;-69
2022/03/12 05:52:18;;;;;;;4.60;1.92;;;5.20;33.20;;;;;;5030553;28;21938;-70
2022/03/12 05:54:49;;;;;;;3.05;1.40;;;5.20;33.50;;;;;;5030396;28;20502;-69
2022/03/12 05:57:16;;;;;;;4.97;1.40;;;5.20;33.40;;;;;;5028405;28;20068;-70
2022/03/12 05:59:43;;;;;;;4.82;1.48;;;5.20;33.50;;;;;;5026077;28;20047;-70
2022/03/12 06:02:10;;;;;;;3.90;1.40;;;5.20;33.50;;;;;;5026432;28;20157;-70
2022/03/12 06:04:38;;;;;;;3.05;1.27;;;5.20;33.60;;;;;;5031011;28;20048;-68
2022/03/12 06:07:05;;;;;;;5.03;1.35;;;5.20;33.90;;;;;;5030540;28;20091;-69
2022/03/12 06:09:33;;;;;;;5.50;1.33;;;5.20;34.10;;;;;;5031512;28;20044;-70
2022/03/12 06:12:00;;;;;;;3.17;1.33;;;5.20;34.20;;;;;;5033639;28;20041;-69
2022/03/12 06:14:30;;;;;;;2.80;1.20;;;5.20;34.20;;;;;;5030771;28;20048;-69
2022/03/12 06:16:57;;;;;;;7.70;1.35;;;5.20;34.10;;;;;;5028573;28;20052;-69
2022/03/12 06:19:24;;;;;;;3.05;1.48;;;5.20;34.10;;;;;;5027028;28;20066;-69
2022/03/12 06:21:55;;;;;;;4.47;1.98;;;5.20;33.90;;;;;;5027401;28;20153;-69
2022/03/12 06:24:22;;;;;;;4.40;1.77;;;5.20;33.90;;;;;;5027903;28;20975;-68
2022/03/12 06:26:48;;;;;;;3.55;1.40;;;5.20;34.20;;;;;;5027911;28;20083;-70
2022/03/12 06:29:16;;;;;;;4.00;1.80;;;5.20;34.30;;;;;;5027805;28;20061;-69
2022/03/12 06:31:43;;;;;;;3.95;1.17;;;5.20;34.30;;;;;;5026730;28;20865;-70
2022/03/12 06:34:12;;;;;;;6.38;1.55;;;5.20;34.20;;;;;;5027904;28;20036;-69
2022/03/12 06:36:40;;;;;;;3.88;1.67;;;5.30;34.40;;;;;;5031380;28;20057;-69
2022/03/12 06:39:09;;;;;;;4.80;1.98;;;5.20;34.30;;;;;;5030249;28;20136;-69
2022/03/12 06:41:43;;;;;;;4.70;1.80;;;5.30;34.40;;;;;;5031785;28;20163;-69
2022/03/12 06:44:11;;;;;;;4.20;1.05;;;5.30;34.00;;;;;;5030985;28;20048;-69
2022/03/12 06:46:38;;;;;;;4.35;1.40;;;5.30;33.80;;;;;;5033454;28;20041;-68
2022/03/12 06:49:06;;;;;;;5.65;1.58;;;5.30;34.10;;;;;;5031094;28;20597;-70
2022/03/12 06:51:33;;;;;;;3.88;1.33;;;5.40;34.10;;;;;;5031036;28;20052;-69
2022/03/12 06:54:01;;;;;;;5.75;1.63;;;5.40;34.40;;;;;;5032091;28;20157;-69
2022/03/12 06:56:29;;;;;;;4.20;1.63;;;5.50;34.20;;;;;;5030288;28;20041;-70
2022/03/12 06:58:56;;;;;;;4.18;1.70;;;5.50;34.30;;;;;;5028717;28;20044;-69
2022/03/12 07:01:23;;;;;;;4.05;1.98;;;5.50;34.30;;;;;;5028630;28;20049;-69
2022/03/12 07:03:50;;;;;;;3.50;1.33;;;5.60;34.10;;;;;;5031397;28;20056;-69
2022/03/12 07:06:21;;;;;;;3.28;1.25;;;5.50;34.20;;;;;;5031421;28;20132;-70
2022/03/12 07:08:49;;;;;;;5.22;1.83;;;5.60;34.20;;;;;;5029170;28;20050;-69
2022/03/12 07:11:17;;;;;;;3.05;1.45;;;5.50;34.40;;;;;;5029832;28;20118;-69
2022/03/12 07:13:45;;;;;;;2.88;1.58;;;5.60;34.50;;;;;;5028621;28;20048;-69
2022/03/12 07:16:12;;;;;;;4.75;1.67;;;5.60;34.50;;;;;;5029994;28;20089;-69
2022/03/12 07:18:39;;;;;;;5.93;1.67;;;5.60;34.20;;;;;;5029883;28;20056;-69
2022/03/12 07:21:07;;;;;;;6.25;1.60;;;5.60;33.90;;;;;;5028915;28;20133;-68
2022/03/12 07:23:35;;;;;;;4.65;1.52;;;5.60;34.10;;;;;;5028042;28;20577;-68
2022/03/12 07:26:03;;;;;;;3.65;1.48;;;5.60;34.40;;;;;;5029127;28;20146;-69
2022/03/12 07:28:32;;;;;;;2.67;1.40;;;5.70;34.40;;;;;;5028407;28;20147;-71
2022/03/12 07:31:01;;;;;;;4.95;2.05;;;5.70;34.40;;;;;;5027793;28;20044;-71
2022/03/12 07:33:29;;;;;;;4.90;1.73;;;5.70;34.50;;;;;;5030312;28;20057;-71
2022/03/12 07:35:57;;;;;;;5.13;2.03;;;5.80;34.40;;;;;;5025569;28;20611;-71
2022/03/12 07:38:24;;;;;;;3.40;1.70;;;5.70;34.40;;;;;;5029682;28;20048;-71
2022/03/12 07:40:51;;;;;;;3.17;1.90;;;5.80;34.90;;;;;;5029193;28;20098;-70
2022/03/12 07:43:18;;;;;;;5.78;2.03;;;5.70;34.60;;;;;;5027899;28;20065;-72
2022/03/12 07:45:47;;;;;;;6.38;1.88;;;5.80;34.50;;;;;;5029387;28;20040;-71
2022/03/12 07:48:15;;;;;;;4.43;1.83;;;5.80;34.50;;;;;;5030121;28;20051;-72
2022/03/12 07:50:44;;;;;;;5.10;2.10;;;5.90;34.40;;;;;;5028933;28;20051;-71
2022/03/12 07:53:12;;;;;;;7.15;1.92;;;5.90;34.50;;;;;;5030637;28;20692;-71
2022/03/12 07:55:39;;;;;;;5.65;1.98;;;5.90;34.70;;;;;;5029785;28;20044;-71
2022/03/12 07:58:07;;;;;;;3.97;1.33;;;6.00;35.00;;;;;;5028962;28;20048;-71
2022/03/12 08:00:34;;;;;;;7.18;2.22;;;6.00;34.90;;;;;;5027677;28;20049;-71
2022/03/12 08:03:01;;;;;;;4.35;1.65;;;6.10;34.70;;;;;;5031975;28;20055;-71
2022/03/12 08:05:29;;;;;;;5.85;2.22;;;6.10;34.70;;;;;;5030074;28;20156;-71
2022/03/12 08:08:00;;;;;;;;;;;6.30;34.50;;;;;;5026535;28;20069;-72
2022/03/12 08:10:27;;;;;;;5.63;1.70;;;6.30;34.70;;;;;;5027643;28;20045;-71
2022/03/12 08:12:57;;;;;;;5.18;1.58;;;6.40;34.10;;;;;;5021847;28;20075;-70
2022/03/12 08:15:24;;;;;;;3.83;1.67;;;6.40;33.30;;;;;;5024998;28;20060;-71
2022/03/12 08:17:51;;;;;;;12.23;2.08;;;6.50;33.50;;;;;;5023843;28;20054;-72
2022/03/12 08:20:19;;;;;;;3.55;1.67;;;6.60;33.20;;;;;;5028583;28;20041;-70
2022/03/12 08:22:48;;;;;;;6.40;2.42;;;6.60;33.10;;;;;;5032961;28;20521;-71
2022/03/12 08:25:32;;;;;;;4.45;1.60;;;6.70;33.50;;;;;;5035144;28;20136;-71
2022/03/12 08:27:59;;;;;;;3.88;1.20;;;6.80;33.90;;;;;;5034142;28;20044;-70
2022/03/12 08:30:26;;;;;;;4.63;1.35;;;6.90;33.80;;;;;;5031307;28;20037;-70
2022/03/12 08:32:53;;;;;;;4.93;1.58;;;7.00;34.10;;;;;;5029705;28;20056;-72
2022/03/12 08:35:21;;;;;;;5.32;1.88;;;7.10;33.90;;;;;;5026613;28;20048;-73
2022/03/12 08:37:49;;;;;;;5.82;1.77;;;7.10;33.40;;;;;;5028730;28;20090;-70
2022/03/12 08:40:16;;;;;;;4.10;1.80;;;7.20;33.30;;;;;;5027055;28;20048;-71
2022/03/12 08:42:43;;;;;;;3.60;1.70;;;7.30;33.40;;;;;;5040348;28;20613;-71
2022/03/12 08:45:11;;;;;;;5.68;2.17;;;7.40;33.10;;;;;;5026917;28;20041;-70
2022/03/12 08:47:38;;;;;;;2.75;1.50;;;7.40;33.00;;;;;;5027492;28;20056;-71
2022/03/12 08:50:08;;;;;;;5.10;1.40;;;7.50;33.20;;;;;;5026034;28;20073;-71
2022/03/12 08:52:37;;;;;;;5.70;1.58;;;7.60;32.90;;;;;;5024851;28;20916;-71
2022/03/12 08:55:07;;;;;;;5.03;2.15;;;7.70;32.90;;;;;;5026147;28;20068;-70
2022/03/12 08:57:34;;;;;;;4.83;1.97;;;7.70;33.20;;;;;;5026773;28;20061;-70
2022/03/12 09:00:05;;;;;;;3.75;1.67;;;7.80;32.80;;;;;;5025935;28;21324;-71
2022/03/12 09:02:34;;;;;;;6.55;2.05;;;7.90;33.20;;;;;;5034218;28;20038;-71
2022/03/12 09:05:01;;;;;;;5.18;2.05;;;8.00;33.20;;;;;;5028099;28;20095;-72
2022/03/12 09:07:30;;;;;;;5.45;2.30;;;8.00;33.40;;;;;;5026965;28;20081;-71
2022/03/12 09:09:57;;;;;;;6.45;2.55;;;8.10;33.40;;;;;;5026517;28;20056;-71
2022/03/12 09:12:26;;;;;;;5.00;2.03;;;8.10;33.20;;;;;;5027590;28;20060;-71
2022/03/12 09:14:53;;;;;;;5.00;2.15;;;8.20;33.50;;;;;;5025674;28;20045;-72
2022/03/12 09:17:21;;;;;;;4.25;1.80;;;8.30;33.30;;;;;;5025946;28;20049;-71
2022/03/12 09:19:48;;;;;;;4.95;1.95;;;8.40;33.60;;;;;;5040702;28;20128;-71
2022/03/12 09:22:15;;;;;;;5.57;2.00;;;8.50;33.30;;;;;;5025503;28;20043;-71
2022/03/12 09:24:42;;;;;;;5.45;2.38;;;8.60;33.40;;;;;;5026058;28;20053;-71
2022/03/12 09:27:09;;;;;;;8.65;2.53;;;8.60;33.30;;;;;;5027705;28;20174;-73
2022/03/12 09:29:38;;;;;;;4.43;2.30;;;8.70;33.20;;;;;;5026678;28;20049;-71
2022/03/12 09:32:06;;;;;;;5.15;1.60;;;8.80;32.70;;;;;;5026553;28;20067;-70
2022/03/12 09:34:34;;;;;;;3.92;1.95;;;8.80;33.20;;;;;;5023929;28;20395;-70
2022/03/12 09:37:02;;;;;;;4.18;1.95;;;8.80;33.30;;;;;;5024702;28;20073;-73
2022/03/12 09:39:30;;;;;;;5.30;1.95;;;8.90;33.50;;;;;;5024169;28;20049;-71
2022/03/12 09:41:57;;;;;;;4.95;2.05;;;8.90;33.60;;;;;;5024509;28;20053;-73
2022/03/12 09:44:24;;;;;;;6.22;2.40;;;9.00;33.30;;;;;;5028170;28;20073;-72
2022/03/12 09:46:52;;;;;;;7.93;2.88;;;9.00;33.00;;;;;;5025658;28;20503;-70
2022/03/12 09:49:19;;;;;;;5.50;2.30;;;9.10;33.10;;;;;;5026830;28;20126;-72
2022/03/12 09:51:49;;;;;;;7.40;3.08;;;9.20;33.20;;;;;;5026053;28;20038;-70
2022/03/12 09:54:18;;;;;;;7.45;2.50;;;9.20;33.50;;;;;;5026365;28;20049;-72
2022/03/12 09:56:45;;;;;;;7.93;2.63;;;9.30;33.30;;;;;;5027082;28;20142;-70
2022/03/12 09:59:12;;;;;;;6.47;2.75;;;9.30;33.10;;;;;;5025980;28;20156;-71
2022/03/12 10:01:39;;;;;;;6.15;2.95;;;9.30;33.20;;;;;;5024415;28;20041;-70
2022/03/12 10:04:07;;;;;;;5.90;2.45;;;9.40;33.40;;;;;;5025488;28;20052;-72
2022/03/12 10:06:34;;;;;;;7.55;2.53;;;9.50;32.90;;;;;;5026992;28;22278;-71
2022/03/12 10:09:03;;;;;;;6.95;2.15;;;9.50;33.10;;;;;;5024983;28;20053;-71
2022/03/12 10:11:30;;;;;;;5.97;2.75;;;9.60;32.70;;;;;;5026621;28;20052;-71
2022/03/12 10:13:57;;;;;;;6.35;2.38;;;9.60;32.80;;;;;;5027121;28;20505;-71
2022/03/12 10:16:25;;;;;;;5.10;2.30;;;9.60;32.40;;;;;;5025425;28;21344;-71
2022/03/12 10:18:52;;;;;;;7.00;2.28;;;9.70;32.70;;;;;;5025181;28;20052;-72
2022/03/12 10:21:21;;;;;;;5.25;2.58;;;9.70;32.00;;;;;;5027024;28;20072;-71
2022/03/12 10:23:48;;;;;;;5.40;2.35;;;9.70;32.00;;;;;;5024779;28;20041;-71
2022/03/12 10:26:14;;;;;;;11.23;3.35;;;9.70;32.40;;;;;;5026449;28;20042;-70
2022/03/12 10:28:42;;;;;;;4.63;2.35;;;9.80;32.20;;;;;;5025509;28;20124;-72
2022/03/12 10:31:10;;;;;;;4.82;2.45;;;9.80;32.40;;;;;;5024730;28;20479;-71
2022/03/12 10:33:37;;;;;;;5.80;2.70;;;9.80;31.80;;;;;;5026046;28;20037;-71
2022/03/12 10:36:12;;;;;;;7.10;2.75;;;9.90;32.30;;;;;;5027558;28;20045;-71
2022/03/12 10:38:45;;;;;;;7.90;3.00;;;10.00;32.90;;;;;;5025590;28;20063;-71
2022/03/12 10:41:13;;;;;;;7.78;2.85;;;10.10;33.30;;;;;;5025607;28;20052;-70
2022/03/12 10:43:45;;;;;;;5.85;2.33;;;10.10;33.30;;;;;;5023291;28;20202;-71
2022/03/12 10:46:22;;;;;;;5.90;2.30;;;10.10;33.50;;;;;;5024570;28;20041;-71
2022/03/12 10:48:55;;;;;;;5.50;2.03;;;10.20;33.40;;;;;;5023734;28;20090;-72
2022/03/12 10:51:26;;;;;;;6.07;2.28;;;10.20;33.80;;;;;;5025546;28;20053;-70
2022/03/12 10:54:05;;;;;;;5.57;2.42;;;10.30;34.00;;;;;;5025177;28;20130;-71
2022/03/12 10:56:43;;;;;;;4.90;2.50;;;10.30;33.90;;;;;;5024700;28;20041;-71
2022/03/12 10:59:12;;;;;;;6.45;2.83;;;10.40;33.40;;;;;;5025292;28;20562;-71
2022/03/12 11:01:46;;;;;;;5.78;2.58;;;10.40;33.70;;;;;;5026066;28;20120;-71
2022/03/12 11:04:22;;;;;;;6.13;3.03;;;10.40;34.10;;;;;;5024303;28;20590;-72
2022/03/12 11:06:50;;;;;;;8.38;2.80;;;10.50;34.00;;;;;;5026934;28;20083;-70
2022/03/12 11:09:33;;;;;;;6.03;2.67;;;10.50;34.40;;;;;;5024521;28;20072;-71
2022/03/12 11:12:00;;;;;;;8.00;2.25;;;10.50;34.60;;;;;;5028305;28;20120;-71
2022/03/12 11:14:31;;;;;;;5.65;2.55;;;10.60;34.60;;;;;;5024416;28;20056;-71
2022/03/12 11:17:03;;;;;;;5.95;3.08;;;10.60;34.50;;;;;;5026611;28;20064;-72
2022/03/12 11:19:41;;;;;;;7.10;2.67;;;10.60;34.30;;;;;;5023072;28;20041;-71
2022/03/12 11:22:13;;;;;;;9.43;3.13;;;10.60;34.00;;;;;;5025727;28;20041;-72
2022/03/12 11:24:50;;;;;;;11.70;5.03;;;10.70;34.10;;;;;;5025852;28;20044;-70
2022/03/12 11:27:30;;;;;;;6.68;3.17;;;10.70;34.30;;;;;;5025594;28;20037;-70
2022/03/12 11:30:01;;;;;;;13.93;5.50;;;10.70;34.70;;;;;;5023569;28;20044;-71
2022/03/12 11:32:30;;;;;;;13.18;5.15;;;10.80;34.50;;;;;;5026584;28;20041;-73
2022/03/12 11:35:10;;;;;;;15.05;6.28;;;10.80;34.90;;;;;;5022557;28;20037;-72
2022/03/12 11:37:41;;;;;;;13.07;5.40;;;10.80;34.80;;;;;;5023939;28;20049;-72
2022/03/12 11:40:11;;;;;;;12.38;5.00;;;10.90;34.40;;;;;;5024432;28;20041;-71
2022/03/12 11:42:39;;;;;;;;;;;10.80;34.50;;;;;;5026350;28;20118;-71
2022/03/12 11:45:09;;;;;;;11.75;5.20;;;10.90;34.30;;;;;;5023841;28;19935;-71
2022/03/12 11:47:37;;;;;;;;;;;10.90;34.70;;;;;;5026248;28;20055;-71
2022/03/12 11:50:08;;;;;;;13.98;5.28;;;10.90;34.60;;;;;;5024253;28;19932;-71
2022/03/12 11:52:36;;;;;;;11.52;5.07;;;10.90;35.30;;;;;;5024991;28;20086;-71
2022/03/12 11:55:05;;;;;;;14.48;4.85;;;11.00;35.10;;;;;;5026937;28;20052;-72
2022/03/12 11:57:36;;;;;;;12.55;5.65;;;11.00;35.50;;;;;;5027568;28;20627;-72
2022/03/12 12:00:11;;;;;;;10.73;5.38;;;11.00;35.90;;;;;;5028215;28;20041;-72
2022/03/12 12:02:42;;;;;;;11.80;4.78;;;11.00;36.00;;;;;;5028618;28;20169;-72
2022/03/12 12:05:11;;;;;;;11.77;4.25;;;11.00;36.30;;;;;;5026550;28;20067;-72
2022/03/12 12:07:39;;;;;;;12.15;4.60;;;11.00;36.30;;;;;;5027693;28;20034;-72
2022/03/12 12:10:08;;;;;;;9.45;4.68;;;11.00;36.40;;;;;;5023877;28;21103;-71
2022/03/12 12:12:37;;;;;;;9.90;4.35;;;11.00;36.60;;;;;;5026887;28;20041;-71
2022/03/12 12:15:06;;;;;;;8.73;4.28;;;11.00;36.80;;;;;;5028396;28;20060;-73
2022/03/12 12:17:33;;;;;;;8.88;3.92;;;11.00;37.00;;;;;;5031332;28;20056;-73
2022/03/12 12:20:02;;;;;;;7.95;4.00;;;11.00;37.20;;;;;;5031279;28;20056;-72
2022/03/12 12:22:29;;;;;;;10.90;3.67;;;11.00;37.10;;;;;;5029956;28;20052;-72
2022/03/12 12:25:02;;;;;;;9.25;3.33;;;11.00;37.40;;;;;;5044811;28;21957;-72
2022/03/12 12:27:43;;;;;;;7.45;3.30;;;11.00;37.60;;;;;;5030775;28;20613;-72
2022/03/12 12:30:15;;;;;;;8.00;3.30;;;11.00;37.60;;;;;;5033474;28;20041;-72
2022/03/12 12:32:47;;;;;;;7.55;3.75;;;11.00;37.70;;;;;;5030920;28;20037;-71
2022/03/12 12:35:18;;;;;;;8.23;3.30;;;11.00;37.80;;;;;;5031075;28;20053;-72
2022/03/12 12:37:57;;;;;;;6.47;3.17;;;11.10;37.90;;;;;;5030063;28;20057;-72
2022/03/12 12:40:31;;;;;;;7.75;3.63;;;11.00;37.70;;;;;;5029464;28;20033;-71
2022/03/12 12:43:02;;;;;;;6.03;2.67;;;11.10;38.00;;;;;;5028826;28;20068;-72
2022/03/12 12:45:36;;;;;;;9.63;3.30;;;11.10;37.90;;;;;;5029789;28;20033;-71
2022/03/12 12:48:12;;;;;;;5.53;2.95;;;11.10;37.80;;;;;;5029848;28;20048;-71
2022/03/12 12:50:39;;;;;;;7.95;3.50;;;11.10;37.80;;;;;;5031320;28;20049;-73
2022/03/12 12:53:15;;;;;;;6.22;2.78;;;11.00;38.10;;;;;;5030572;28;20049;-72
2022/03/12 12:55:42;;;;;;;6.55;2.90;;;11.00;37.80;;;;;;5030437;28;20097;-72
2022/03/12 12:58:11;;;;;;;7.90;2.78;;;11.10;38.00;;;;;;5029939;28;20383;-72
2022/03/12 13:00:40;;;;;;;7.00;2.67;;;11.00;38.20;;;;;;5029629;28;20060;-72
2022/03/12 13:03:15;;;;;;;6.95;2.60;;;11.10;38.00;;;;;;5030971;28;20055;-72